createdAt,value
2018-07-01T00:01:27.152Z,18.00
2018-07-01T00:03:55.303Z,18.00
2018-07-01T00:06:23.632Z,18.00
2018-07-01T00:08:51.868Z,18.00
2018-07-01T00:11:19.988Z,18.10
2018-07-01T00:13:48.120Z,18.00
2018-07-01T00:16:16.300Z,17.90
2018-07-01T00:18:44.471Z,17.90
2018-07-01T00:21:12.604Z,17.80
2018-07-01T00:23:40.771Z,17.80
2018-07-01T00:26:08.906Z,17.80
2018-07-01T00:28:37.100Z,17.70
2018-07-01T00:31:05.240Z,17.70
2018-07-01T00:33:33.449Z,17.70
2018-07-01T00:36:01.808Z,17.60
2018-07-01T00:38:29.947Z,17.60
2018-07-01T00:40:58.060Z,17.60
2018-07-01T00:43:26.223Z,17.50
2018-07-01T00:45:54.384Z,17.50
2018-07-01T00:48:22.551Z,17.50
2018-07-01T00:50:50.658Z,17.50
2018-07-01T00:53:18.788Z,17.50
2018-07-01T00:55:46.955Z,17.50
2018-07-01T00:58:15.103Z,17.50
2018-07-01T01:00:43.269Z,17.40
2018-07-01T01:03:11.368Z,17.40
2018-07-01T01:05:39.472Z,17.40
2018-07-01T01:08:07.631Z,17.40
2018-07-01T01:10:35.783Z,17.30
2018-07-01T01:13:03.920Z,17.20
2018-07-01T01:15:32.059Z,17.10
2018-07-01T01:18:00.199Z,16.90
2018-07-01T01:20:28.431Z,16.70
2018-07-01T01:22:56.624Z,16.60
2018-07-01T01:25:24.792Z,16.40
2018-07-01T01:27:52.895Z,16.30
2018-07-01T01:30:21.038Z,16.30
2018-07-01T01:32:49.155Z,16.40
2018-07-01T01:35:17.283Z,16.30
2018-07-01T01:37:45.400Z,16.30
2018-07-01T01:40:14.941Z,16.20
2018-07-01T01:43:17.634Z,16.20
2018-07-01T01:45:55.204Z,16.10
2018-07-01T01:48:28.767Z,16.20
2018-07-01T01:51:01.138Z,16.10
2018-07-01T01:54:35.384Z,16.00
2018-07-01T01:57:08.292Z,16.00
2018-07-01T01:59:44.672Z,15.80
2018-07-01T02:02:17.286Z,15.90
2018-07-01T02:04:53.331Z,15.80
2018-07-01T02:07:28.711Z,15.70
2018-07-01T02:09:56.852Z,15.70
2018-07-01T02:12:25.019Z,15.80
2018-07-01T02:14:56.113Z,15.70
2018-07-01T02:17:33.350Z,15.60
2018-07-01T02:20:01.572Z,15.70
2018-07-01T02:22:33.215Z,15.60
2018-07-01T02:25:03.215Z,15.50
2018-07-01T02:27:31.351Z,15.60
2018-07-01T02:29:59.495Z,15.50
2018-07-01T02:32:27.634Z,15.40
2018-07-01T02:34:55.819Z,15.40
2018-07-01T02:37:23.909Z,15.40
2018-07-01T02:39:52.040Z,15.50
2018-07-01T02:42:20.237Z,15.50
2018-07-01T02:44:48.377Z,15.40
2018-07-01T02:47:16.557Z,15.40
2018-07-01T02:49:44.662Z,15.40
2018-07-01T02:52:12.822Z,15.30
2018-07-01T02:54:40.995Z,15.30
2018-07-01T02:57:09.105Z,15.40
2018-07-01T02:59:37.339Z,15.30
2018-07-01T03:02:05.620Z,15.30
2018-07-01T03:04:33.866Z,15.20
2018-07-01T03:07:02.016Z,15.20
2018-07-01T03:09:30.135Z,15.30
2018-07-01T03:11:58.295Z,15.30
2018-07-01T03:14:26.416Z,15.20
2018-07-01T03:16:54.532Z,15.20
2018-07-01T03:19:22.723Z,15.10
2018-07-01T03:21:50.848Z,15.20
2018-07-01T03:24:18.981Z,15.20
2018-07-01T03:26:47.097Z,15.10
2018-07-01T03:29:15.205Z,15.10
2018-07-01T03:31:43.350Z,15.10
2018-07-01T03:34:11.490Z,15.00
2018-07-01T03:36:39.585Z,15.10
2018-07-01T03:39:08.712Z,15.00
2018-07-01T03:41:36.895Z,15.00
2018-07-01T03:44:05.499Z,15.00
2018-07-01T03:46:33.646Z,15.00
2018-07-01T03:49:01.779Z,15.10
2018-07-01T03:51:30.428Z,15.10
2018-07-01T03:53:58.549Z,15.00
2018-07-01T03:56:26.781Z,15.00
2018-07-01T03:58:55.287Z,15.00
2018-07-01T04:01:23.434Z,15.10
2018-07-01T04:03:51.553Z,15.20
2018-07-01T04:06:19.679Z,15.10
2018-07-01T04:11:15.770Z,15.10
2018-07-01T04:13:43.905Z,15.10
2018-07-01T04:16:12.047Z,15.10
2018-07-01T04:18:40.283Z,15.20
2018-07-01T04:21:08.611Z,15.20
2018-07-01T04:23:36.744Z,15.20
2018-07-01T04:26:04.896Z,15.30
2018-07-01T04:28:33.157Z,15.30
2018-07-01T04:31:01.429Z,15.20
2018-07-01T04:33:29.599Z,15.30
2018-07-01T04:35:57.737Z,15.20
2018-07-01T04:38:25.853Z,15.40
2018-07-01T04:40:54.100Z,15.30
2018-07-01T04:43:22.347Z,15.30
2018-07-01T04:45:50.724Z,15.30
2018-07-01T04:48:18.932Z,15.40
2018-07-01T04:50:47.072Z,15.40
2018-07-01T04:53:15.206Z,15.30
2018-07-01T04:55:43.316Z,15.30
2018-07-01T04:58:11.483Z,15.50
2018-07-01T05:00:39.651Z,15.50
2018-07-01T05:03:07.827Z,15.40
2018-07-01T05:05:35.971Z,15.40
2018-07-01T05:08:04.401Z,15.40
2018-07-01T05:10:32.576Z,15.50
2018-07-01T05:13:00.736Z,15.60
2018-07-01T05:15:28.909Z,15.60
2018-07-01T05:17:57.028Z,15.70
2018-07-01T05:20:25.159Z,15.70
2018-07-01T05:22:53.283Z,15.80
2018-07-01T05:25:21.423Z,15.80
2018-07-01T05:27:49.558Z,15.80
2018-07-01T05:30:17.693Z,15.70
2018-07-01T05:32:45.815Z,15.80
2018-07-01T05:35:13.970Z,15.90
2018-07-01T05:37:42.108Z,16.00
2018-07-01T05:40:10.270Z,16.10
2018-07-01T05:42:38.403Z,16.20
2018-07-01T05:45:06.541Z,16.20
2018-07-01T05:47:34.678Z,16.30
2018-07-01T05:50:02.963Z,16.30
2018-07-01T05:52:31.249Z,16.40
2018-07-01T05:54:59.386Z,16.50
2018-07-01T05:57:27.532Z,16.60
2018-07-01T05:59:55.655Z,16.60
2018-07-01T06:02:23.829Z,16.80
2018-07-01T06:04:51.971Z,16.90
2018-07-01T06:07:20.133Z,16.90
2018-07-01T06:09:48.243Z,16.90
2018-07-01T06:12:16.403Z,16.90
2018-07-01T06:14:44.616Z,17.00
2018-07-01T06:17:12.845Z,17.10
2018-07-01T06:19:41.012Z,17.20
2018-07-01T06:22:09.175Z,17.30
2018-07-01T06:24:37.367Z,17.30
2018-07-01T06:27:05.477Z,17.40
2018-07-01T06:29:33.680Z,17.40
2018-07-01T06:32:01.825Z,17.50
2018-07-01T06:34:29.953Z,17.60
2018-07-01T06:36:58.077Z,17.60
2018-07-01T06:39:26.184Z,17.70
2018-07-01T06:41:54.333Z,17.70
2018-07-01T06:44:22.427Z,17.80
2018-07-01T06:46:50.660Z,17.80
2018-07-01T06:49:18.851Z,17.90
2018-07-01T06:51:46.941Z,18.10
2018-07-01T06:54:15.118Z,18.10
2018-07-01T06:56:43.253Z,18.20
2018-07-01T06:59:11.434Z,18.20
2018-07-01T07:01:39.549Z,18.30
2018-07-01T07:04:07.780Z,18.30
2018-07-01T07:06:35.946Z,18.50
2018-07-01T07:09:06.265Z,18.60
2018-07-01T07:11:34.474Z,18.60
2018-07-01T07:14:02.661Z,18.70
2018-07-01T07:16:31.029Z,18.80
2018-07-01T07:18:59.187Z,18.80
2018-07-01T07:21:27.360Z,18.90
2018-07-01T07:23:55.639Z,19.00
2018-07-01T07:26:23.756Z,19.00
2018-07-01T07:28:54.636Z,19.10
2018-07-01T07:31:22.795Z,19.10
2018-07-01T07:33:50.964Z,19.30
2018-07-01T07:36:19.179Z,19.20
2018-07-01T07:38:48.398Z,19.40
2018-07-01T07:41:16.554Z,19.30
2018-07-01T07:43:44.757Z,19.40
2018-07-01T07:46:13.011Z,19.40
2018-07-01T07:48:41.135Z,19.50
2018-07-01T07:51:10.899Z,19.70
2018-07-01T07:53:39.302Z,19.70
2018-07-01T07:56:07.463Z,19.80
2018-07-01T07:58:35.930Z,19.90
2018-07-01T08:01:04.470Z,19.90
2018-07-01T08:03:32.605Z,19.90
2018-07-01T08:06:00.804Z,19.90
2018-07-01T08:08:29.311Z,20.00
2018-07-01T08:10:57.426Z,20.00
2018-07-01T08:13:25.558Z,20.00
2018-07-01T08:15:53.978Z,20.10
2018-07-01T08:18:22.463Z,20.20
2018-07-01T08:20:51.033Z,20.30
2018-07-01T08:23:19.161Z,20.30
2018-07-01T08:25:47.275Z,20.30
2018-07-01T08:28:15.403Z,20.30
2018-07-01T08:30:43.512Z,20.30
2018-07-01T08:33:11.997Z,20.30
2018-07-01T08:35:40.315Z,20.40
2018-07-01T08:38:08.639Z,20.40
2018-07-01T08:40:36.806Z,20.40
2018-07-01T08:43:04.924Z,20.50
2018-07-01T08:45:33.640Z,20.50
2018-07-01T08:50:30.013Z,20.50
2018-07-01T08:52:58.636Z,20.60
2018-07-01T08:55:27.123Z,20.60
2018-07-01T08:57:55.553Z,20.60
2018-07-01T09:02:51.604Z,20.80
2018-07-01T09:05:20.966Z,20.80
2018-07-01T09:07:49.457Z,20.80
2018-07-01T09:10:17.688Z,20.80
2018-07-01T09:12:45.862Z,20.80
2018-07-01T09:15:14.023Z,20.80
2018-07-01T09:17:42.173Z,20.80
2018-07-01T09:20:10.326Z,20.70
2018-07-01T09:22:38.452Z,20.70
2018-07-01T09:25:06.723Z,20.80
2018-07-01T09:27:34.881Z,20.90
2018-07-01T09:30:03.608Z,20.90
2018-07-01T09:32:32.296Z,21.00
2018-07-01T09:35:00.692Z,21.00
2018-07-01T09:37:28.885Z,21.10
2018-07-01T09:39:56.987Z,21.10
2018-07-01T09:42:25.167Z,21.20
2018-07-01T09:44:53.401Z,21.20
2018-07-01T09:47:21.627Z,21.20
2018-07-01T09:49:49.812Z,21.20
2018-07-01T09:52:18.026Z,21.40
2018-07-01T09:54:46.252Z,21.40
2018-07-01T09:57:14.413Z,21.30
2018-07-01T09:59:42.576Z,21.30
2018-07-01T10:02:10.743Z,21.30
2018-07-01T10:04:39.002Z,21.40
2018-07-01T10:07:07.270Z,21.30
2018-07-01T10:09:35.375Z,21.30
2018-07-01T10:12:03.568Z,21.30
2018-07-01T10:14:31.791Z,21.50
2018-07-01T10:16:59.960Z,21.50
2018-07-01T10:19:28.276Z,21.40
2018-07-01T10:21:56.466Z,21.50
2018-07-01T10:24:24.590Z,21.50
2018-07-01T10:26:52.823Z,21.60
2018-07-01T10:29:20.951Z,21.60
2018-07-01T10:31:49.148Z,21.60
2018-07-01T10:34:17.291Z,21.50
2018-07-01T10:36:45.573Z,21.50
2018-07-01T10:39:17.352Z,21.60
2018-07-01T10:41:45.519Z,21.60
2018-07-01T10:44:13.732Z,21.60
2018-07-01T10:46:41.899Z,21.70
2018-07-01T10:51:37.925Z,21.70
2018-07-01T10:54:06.144Z,21.80
2018-07-01T10:56:34.322Z,21.80
2018-07-01T10:59:02.507Z,21.90
2018-07-01T11:01:30.774Z,21.90
2018-07-01T11:03:58.940Z,21.90
2018-07-01T11:06:27.076Z,22.00
2018-07-01T11:08:55.206Z,22.10
2018-07-01T11:11:23.485Z,22.10
2018-07-01T11:13:51.650Z,22.10
2018-07-01T11:16:19.810Z,22.10
2018-07-01T11:18:47.973Z,22.00
2018-07-01T11:21:16.109Z,22.00
2018-07-01T11:23:44.253Z,22.10
2018-07-01T11:26:12.388Z,22.10
2018-07-01T11:28:40.528Z,22.10
2018-07-01T11:31:08.651Z,22.10
2018-07-01T11:36:04.977Z,22.30
2018-07-01T11:38:33.295Z,22.30
2018-07-01T11:41:01.455Z,22.30
2018-07-01T11:43:29.592Z,22.40
2018-07-01T11:45:57.917Z,22.40
2018-07-01T11:48:26.078Z,22.40
2018-07-01T11:50:54.223Z,22.60
2018-07-01T11:53:22.403Z,22.80
2018-07-01T11:55:50.616Z,22.80
2018-07-01T11:58:18.762Z,22.70
2018-07-01T12:00:46.891Z,22.70
2018-07-01T12:03:15.061Z,22.80
2018-07-01T12:05:43.438Z,22.90
2018-07-01T12:08:11.540Z,23.00
2018-07-01T12:10:39.677Z,23.00
2018-07-01T12:13:07.840Z,23.20
2018-07-01T12:15:35.949Z,23.10
2018-07-01T12:18:04.217Z,23.10
2018-07-01T12:20:32.399Z,23.10
2018-07-01T12:23:00.518Z,23.20
2018-07-01T12:25:28.641Z,23.20
2018-07-01T12:27:56.781Z,23.30
2018-07-01T12:30:24.919Z,23.30
2018-07-01T12:32:53.109Z,23.20
2018-07-01T12:35:21.313Z,23.20
2018-07-01T12:37:49.448Z,23.20
2018-07-01T12:40:17.557Z,23.30
2018-07-01T12:42:45.724Z,23.30
2018-07-01T12:45:13.889Z,23.20
2018-07-01T12:47:42.055Z,23.20
2018-07-01T12:50:10.139Z,23.40
2018-07-01T12:52:38.308Z,23.50
2018-07-01T12:55:06.451Z,23.50
2018-07-01T12:57:34.581Z,23.50
2018-07-01T13:00:02.786Z,23.50
2018-07-01T13:02:31.033Z,23.50
2018-07-01T13:04:59.147Z,23.60
2018-07-01T13:07:27.313Z,23.60
2018-07-01T13:09:55.504Z,23.70
2018-07-01T13:12:24.089Z,23.80
2018-07-01T13:14:52.248Z,23.80
2018-07-01T13:17:20.388Z,23.70
2018-07-01T13:19:48.604Z,23.80
2018-07-01T13:22:16.804Z,23.80
2018-07-01T13:24:44.964Z,23.90
2018-07-01T13:27:13.321Z,24.00
2018-07-01T13:29:41.462Z,23.90
2018-07-01T13:32:09.596Z,23.90
2018-07-01T13:34:37.751Z,23.90
2018-07-01T13:37:05.868Z,24.00
2018-07-01T13:39:34.010Z,24.10
2018-07-01T13:42:02.180Z,24.10
2018-07-01T13:44:30.340Z,24.30
2018-07-01T13:46:58.557Z,24.30
2018-07-01T13:49:26.752Z,24.40
2018-07-01T13:51:54.975Z,24.60
2018-07-01T13:54:23.142Z,24.60
2018-07-01T13:56:51.327Z,24.70
2018-07-01T13:59:19.391Z,25.00
2018-07-01T14:01:47.560Z,25.40
2018-07-01T14:04:15.684Z,25.90
2018-07-01T14:06:43.845Z,26.70
2018-07-01T14:09:13.008Z,27.80
2018-07-01T14:11:41.139Z,30.00
2018-07-01T14:14:09.567Z,30.10
2018-07-01T14:16:37.920Z,30.70
2018-07-01T14:19:06.057Z,30.60
2018-07-01T14:21:34.165Z,28.50
2018-07-01T14:24:02.387Z,27.80
2018-07-01T14:26:30.588Z,27.00
2018-07-01T14:28:58.728Z,27.00
2018-07-01T14:31:26.862Z,27.00
2018-07-01T14:33:55.005Z,27.20
2018-07-01T14:36:23.137Z,27.20
2018-07-01T14:38:51.268Z,27.60
2018-07-01T14:41:19.372Z,27.60
2018-07-01T14:43:47.523Z,27.90
2018-07-01T14:46:15.863Z,28.00
2018-07-01T14:48:44.091Z,28.10
2018-07-01T14:51:12.540Z,28.20
2018-07-01T14:53:40.684Z,28.20
2018-07-01T14:56:08.887Z,27.70
2018-07-01T14:58:37.190Z,27.90
2018-07-01T15:01:05.493Z,28.30
2018-07-01T15:03:33.624Z,28.70
2018-07-01T15:06:04.988Z,28.80
2018-07-01T15:11:02.354Z,28.70
2018-07-01T15:13:31.164Z,28.80
2018-07-01T15:15:59.426Z,28.90
2018-07-01T15:18:27.590Z,29.00
2018-07-01T15:20:55.825Z,29.50
2018-07-01T15:23:25.415Z,29.50
2018-07-01T15:25:53.912Z,29.40
2018-07-01T15:28:22.092Z,29.40
2018-07-01T15:30:50.196Z,29.20
2018-07-01T15:33:19.414Z,29.30
2018-07-01T15:35:47.659Z,30.10
2018-07-01T15:38:15.952Z,30.50
2018-07-01T15:40:44.197Z,30.50
2018-07-01T15:43:12.326Z,30.70
2018-07-01T15:45:40.468Z,31.20
2018-07-01T15:48:08.610Z,31.90
2018-07-01T15:50:37.352Z,32.20
2018-07-01T15:53:05.509Z,32.10
2018-07-01T15:55:33.890Z,32.10
2018-07-01T15:58:02.132Z,32.30
2018-07-01T16:00:30.345Z,32.80
2018-07-01T16:02:58.664Z,33.30
2018-07-01T16:05:27.362Z,33.70
2018-07-01T16:07:55.754Z,33.70
2018-07-01T16:10:23.954Z,33.10
2018-07-01T16:12:52.297Z,33.10
2018-07-01T16:15:20.459Z,33.50
2018-07-01T16:17:48.719Z,34.00
2018-07-01T16:20:16.789Z,33.60
2018-07-01T16:22:44.949Z,33.80
2018-07-01T16:25:18.509Z,33.50
2018-07-01T16:27:51.975Z,33.50
2018-07-01T16:30:20.228Z,33.00
2018-07-01T16:32:48.446Z,33.00
2018-07-01T16:35:16.691Z,32.80
2018-07-01T16:37:45.022Z,31.80
2018-07-01T16:40:13.231Z,31.60
2018-07-01T16:42:41.530Z,31.70
2018-07-01T16:45:09.685Z,31.80
2018-07-01T16:47:37.819Z,32.50
2018-07-01T16:50:06.021Z,33.50
2018-07-01T16:52:34.604Z,33.50
2018-07-01T16:55:02.832Z,34.30
2018-07-01T16:57:30.968Z,34.30
2018-07-01T16:59:59.150Z,34.40
2018-07-01T17:02:27.322Z,33.60
2018-07-01T17:04:55.491Z,33.80
2018-07-01T17:07:23.617Z,33.90
2018-07-01T17:09:51.966Z,33.80
2018-07-01T17:12:20.093Z,34.00
2018-07-01T17:14:48.238Z,33.90
2018-07-01T17:17:16.396Z,33.90
2018-07-01T17:19:44.612Z,33.90
2018-07-01T17:22:12.927Z,34.10
2018-07-01T17:24:41.050Z,34.10
2018-07-01T17:27:09.220Z,34.20
2018-07-01T17:29:37.384Z,33.80
2018-07-01T17:32:11.049Z,34.60
2018-07-01T17:34:39.240Z,34.80
2018-07-01T17:39:35.411Z,34.90
2018-07-01T17:42:03.557Z,34.50
2018-07-01T17:44:31.781Z,33.50
2018-07-01T17:46:59.889Z,33.40
2018-07-01T17:49:28.040Z,33.20
2018-07-01T17:51:56.215Z,33.40
2018-07-01T17:54:24.549Z,33.20
2018-07-01T17:56:52.730Z,32.90
2018-07-01T17:59:21.118Z,32.70
2018-07-01T18:01:49.239Z,32.80
2018-07-01T18:04:17.409Z,32.60
2018-07-01T18:06:45.551Z,32.70
2018-07-01T18:09:14.039Z,32.30
2018-07-01T18:11:42.151Z,32.20
2018-07-01T18:14:10.309Z,31.70
2018-07-01T18:16:38.460Z,32.20
2018-07-01T18:19:06.824Z,31.90
2018-07-01T18:21:53.001Z,31.80
2018-07-01T18:26:31.073Z,32.40
2018-07-01T18:29:08.188Z,32.30
2018-07-01T18:31:27.320Z,32.30
2018-07-01T18:33:55.497Z,32.30
2018-07-01T18:36:23.697Z,31.10
2018-07-01T18:38:51.875Z,31.00
2018-07-01T18:41:20.076Z,29.10
2018-07-01T18:43:48.342Z,28.20
2018-07-01T18:46:16.475Z,27.40
2018-07-01T18:48:44.596Z,27.00
2018-07-01T18:53:40.962Z,26.80
2018-07-01T18:56:09.111Z,26.60
2018-07-01T18:58:37.285Z,26.40
2018-07-01T19:01:06.701Z,26.20
2018-07-01T19:03:34.896Z,26.00
2018-07-01T19:06:03.012Z,26.30
2018-07-01T19:08:31.207Z,27.10
2018-07-01T19:10:59.335Z,26.70
2018-07-01T19:13:27.543Z,26.00
2018-07-01T19:15:55.788Z,25.30
2018-07-01T19:18:24.105Z,25.30
2018-07-01T19:20:52.259Z,25.10
2018-07-01T19:23:20.473Z,24.70
2018-07-01T19:25:49.034Z,24.40
2018-07-01T19:28:17.216Z,24.40
2018-07-01T19:30:45.375Z,24.20
2018-07-01T19:33:13.592Z,24.00
2018-07-01T19:35:41.744Z,24.00
2018-07-01T19:38:09.909Z,23.90
2018-07-01T19:40:38.079Z,23.80
2018-07-01T19:43:06.377Z,23.70
2018-07-01T19:45:34.347Z,23.60
2018-07-01T19:48:02.538Z,23.50
2018-07-01T19:50:30.609Z,23.40
2018-07-01T19:52:58.856Z,23.30
2018-07-01T19:55:27.006Z,23.20
2018-07-01T19:57:55.265Z,23.20
2018-07-01T20:00:23.424Z,23.10
2018-07-01T20:02:51.523Z,22.90
2018-07-01T20:05:20.472Z,22.70
2018-07-01T20:07:48.584Z,22.70
2018-07-01T20:10:16.703Z,22.50
2018-07-01T20:12:44.833Z,22.40
2018-07-01T20:15:12.969Z,22.40
2018-07-01T20:17:41.151Z,22.40
2018-07-01T20:20:09.452Z,22.20
2018-07-01T20:22:37.609Z,22.20
2018-07-01T20:25:05.787Z,22.20
2018-07-01T20:27:33.890Z,22.10
2018-07-01T20:30:02.033Z,22.00
2018-07-01T20:32:30.216Z,22.00
2018-07-01T20:34:58.420Z,22.00
2018-07-01T20:37:26.607Z,21.90
2018-07-01T20:39:54.658Z,21.70
2018-07-01T20:42:23.164Z,21.60
2018-07-01T20:44:51.364Z,21.60
2018-07-01T20:47:19.520Z,21.60
2018-07-01T20:49:47.660Z,21.50
2018-07-01T20:52:15.771Z,21.40
2018-07-01T20:54:43.915Z,21.40
2018-07-01T20:57:12.761Z,21.30
2018-07-01T20:59:40.945Z,21.30
2018-07-01T21:02:09.118Z,21.20
2018-07-01T21:04:37.251Z,21.20
2018-07-01T21:07:05.408Z,21.20
2018-07-01T21:09:33.543Z,21.10
2018-07-01T21:12:01.761Z,21.00
2018-07-01T21:14:29.852Z,20.90
2018-07-01T21:19:25.961Z,20.80
2018-07-01T21:21:54.131Z,20.80
2018-07-01T21:24:22.356Z,20.60
2018-07-01T21:26:50.788Z,20.70
2018-07-01T21:29:18.904Z,20.50
2018-07-01T21:31:47.121Z,20.50
2018-07-01T21:34:15.262Z,20.50
2018-07-01T21:36:43.401Z,20.30
2018-07-01T21:39:12.254Z,20.30
2018-07-01T21:41:40.872Z,20.20
2018-07-01T21:44:09.265Z,20.10
2018-07-01T21:46:37.643Z,20.00
2018-07-01T21:51:56.355Z,19.90
2018-07-01T21:54:24.510Z,19.90
2018-07-01T21:56:52.739Z,19.90
2018-07-01T21:59:20.872Z,19.80
2018-07-01T22:01:49.016Z,19.80
2018-07-01T22:04:17.188Z,19.70
2018-07-01T22:06:50.701Z,19.70
2018-07-01T22:09:18.850Z,19.70
2018-07-01T22:12:04.336Z,19.50
2018-07-01T22:14:37.289Z,19.50
2018-07-01T22:17:07.518Z,19.50
2018-07-01T22:19:36.004Z,19.30
2018-07-01T22:22:04.244Z,19.30
2018-07-01T22:24:33.604Z,19.30
2018-07-01T22:27:01.846Z,19.30
2018-07-01T22:29:29.956Z,19.20
2018-07-01T22:31:58.273Z,19.20
2018-07-01T22:34:26.472Z,19.20
2018-07-01T22:36:55.062Z,19.20
2018-07-01T22:39:24.380Z,19.10
2018-07-01T22:41:53.361Z,19.00
2018-07-01T22:44:21.515Z,18.90
2018-07-01T22:49:18.178Z,18.90
2018-07-01T22:51:46.339Z,18.80
2018-07-01T22:54:14.502Z,18.80
2018-07-01T22:56:42.665Z,18.80
2018-07-01T22:59:10.824Z,18.70
2018-07-01T23:03:24.026Z,18.70
2018-07-01T23:05:52.161Z,18.60
2018-07-01T23:08:20.316Z,18.60
2018-07-01T23:10:48.443Z,18.60
2018-07-01T23:13:16.603Z,18.60
2018-07-01T23:15:44.797Z,18.50
2018-07-01T23:18:12.918Z,18.40
2018-07-01T23:20:41.091Z,18.30
2018-07-01T23:23:09.227Z,18.30
2018-07-01T23:25:37.351Z,18.30
2018-07-01T23:28:05.500Z,18.30
2018-07-01T23:30:33.650Z,18.30
2018-07-01T23:33:01.806Z,18.20
2018-07-01T23:35:29.952Z,18.20
2018-07-01T23:37:58.121Z,18.20
2018-07-01T23:40:26.282Z,18.20
2018-07-01T23:42:54.441Z,18.10
2018-07-01T23:45:22.537Z,18.10
2018-07-01T23:47:50.658Z,18.10
2018-07-01T23:50:18.800Z,18.10
2018-07-01T23:52:46.951Z,18.10
2018-07-01T23:55:15.109Z,17.90
2018-07-01T23:57:43.229Z,17.90
